createdAt,value
2019-02-19T00:00:48.516Z,25.30
2019-02-19T00:03:17.171Z,29.30
2019-02-19T00:05:45.827Z,24.70
2019-02-19T00:08:14.350Z,24.87
2019-02-19T00:10:42.731Z,27.83
2019-02-19T00:13:11.415Z,24.83
2019-02-19T00:15:40.210Z,27.17
2019-02-19T00:18:08.757Z,25.83
2019-02-19T00:20:37.056Z,25.83
2019-02-19T00:23:05.667Z,25.13
2019-02-19T00:25:33.905Z,25.93
2019-02-19T00:28:02.536Z,29.33
2019-02-19T00:30:31.122Z,27.93
2019-02-19T00:32:59.722Z,26.30
2019-02-19T00:35:27.912Z,25.57
2019-02-19T00:37:56.180Z,26.90
2019-02-19T00:40:24.351Z,27.30
2019-02-19T00:42:52.625Z,27.27
2019-02-19T00:45:20.760Z,29.43
2019-02-19T00:47:49.306Z,27.43
2019-02-19T00:50:16.881Z,32.53
2019-02-19T00:52:45.414Z,28.27
2019-02-19T00:55:14.134Z,26.13
2019-02-19T00:57:42.761Z,29.80
2019-02-19T01:03:32.110Z,28.20
2019-02-19T01:05:59.678Z,33.33
2019-02-19T01:08:27.960Z,31.43
2019-02-19T01:10:56.544Z,32.17
2019-02-19T01:13:24.461Z,33.27
2019-02-19T01:15:52.816Z,34.17
2019-02-19T01:18:21.000Z,32.13
2019-02-19T01:20:49.903Z,34.50
2019-02-19T01:23:18.610Z,31.10
2019-02-19T01:25:46.741Z,28.83
2019-02-19T01:28:15.334Z,34.00
2019-02-19T01:30:43.567Z,32.27
2019-02-19T01:33:11.090Z,28.90
2019-02-19T01:35:39.289Z,30.60
2019-02-19T01:38:07.440Z,31.77
2019-02-19T01:40:36.051Z,29.57
2019-02-19T01:43:04.236Z,28.10
2019-02-19T01:45:34.307Z,31.37
2019-02-19T01:48:02.676Z,29.27
2019-02-19T01:50:30.591Z,36.93
2019-02-19T01:52:58.836Z,36.70
2019-02-19T01:55:27.119Z,36.63
2019-02-19T01:57:54.931Z,34.73
2019-02-19T02:00:23.516Z,33.97
2019-02-19T02:02:51.800Z,36.63
2019-02-19T02:05:20.080Z,32.20
2019-02-19T02:07:48.256Z,38.97
2019-02-19T02:10:15.838Z,38.03
2019-02-19T02:12:44.401Z,32.67
2019-02-19T02:15:12.380Z,28.90
2019-02-19T02:17:40.970Z,26.93
2019-02-19T02:20:09.735Z,30.03
2019-02-19T02:22:38.452Z,27.10
2019-02-19T02:25:18.654Z,28.60
2019-02-19T02:27:46.695Z,29.30
2019-02-19T02:30:14.952Z,25.30
2019-02-19T02:32:43.461Z,29.47
2019-02-19T02:35:11.750Z,28.17
2019-02-19T02:37:40.327Z,25.27
2019-02-19T02:40:08.617Z,23.53
2019-02-19T02:42:37.055Z,26.53
2019-02-19T02:45:04.575Z,28.30
2019-02-19T02:47:33.084Z,33.93
2019-02-19T02:50:01.425Z,30.97
2019-02-19T02:52:29.831Z,34.20
2019-02-19T02:54:58.315Z,30.20
2019-02-19T02:57:26.927Z,29.30
2019-02-19T02:59:54.755Z,23.33
2019-02-19T03:02:23.150Z,25.53
2019-02-19T03:04:51.431Z,25.87
2019-02-19T03:10:26.710Z,26.33
2019-02-19T03:12:55.155Z,27.97
2019-02-19T03:15:23.776Z,26.30
2019-02-19T03:17:52.037Z,23.13
2019-02-19T03:20:20.719Z,22.73
2019-02-19T03:22:49.008Z,27.00
2019-02-19T03:25:16.882Z,22.97
2019-02-19T03:27:45.054Z,26.30
2019-02-19T03:30:13.748Z,24.63
2019-02-19T03:32:42.034Z,25.30
2019-02-19T03:35:09.906Z,25.00
2019-02-19T03:37:38.128Z,25.40
2019-02-19T03:40:07.617Z,26.77
2019-02-19T03:42:42.396Z,26.10
2019-02-19T03:45:11.137Z,24.43
2019-02-19T03:47:39.441Z,27.00
2019-02-19T03:50:07.721Z,24.77
2019-02-19T03:52:36.381Z,26.67
2019-02-19T03:55:44.943Z,30.17
2019-02-19T03:58:12.759Z,23.50
2019-02-19T04:00:41.230Z,23.63
2019-02-19T04:03:09.861Z,20.87
2019-02-19T04:05:38.508Z,23.93
2019-02-19T04:08:06.382Z,20.63
2019-02-19T04:10:34.634Z,24.90
2019-02-19T04:13:03.257Z,20.87
2019-02-19T04:15:31.853Z,25.13
2019-02-19T04:18:00.458Z,27.03
2019-02-19T04:20:29.287Z,21.27
2019-02-19T04:22:56.812Z,22.53
2019-02-19T04:25:25.390Z,26.03
2019-02-19T04:27:53.560Z,25.07
2019-02-19T04:30:21.446Z,22.77
2019-02-19T04:32:49.970Z,23.70
2019-02-19T04:35:18.306Z,28.07
2019-02-19T04:37:46.893Z,25.83
2019-02-19T04:40:15.647Z,22.87
2019-02-19T04:42:43.977Z,23.83
2019-02-19T04:45:12.061Z,20.73
2019-02-19T04:47:40.845Z,18.90
2019-02-19T04:50:09.148Z,21.30
2019-02-19T04:52:37.827Z,19.93
2019-02-19T04:55:06.653Z,21.53
2019-02-19T04:57:35.305Z,18.37
2019-02-19T05:00:03.273Z,24.47
2019-02-19T05:02:31.972Z,21.33
2019-02-19T05:05:00.665Z,22.67
2019-02-19T05:07:29.257Z,20.70
2019-02-19T05:09:57.958Z,27.07
2019-02-19T05:12:25.854Z,27.27
2019-02-19T05:14:54.316Z,20.23
2019-02-19T05:17:22.829Z,21.83
2019-02-19T05:19:51.166Z,20.53
2019-02-19T05:22:19.726Z,22.23
2019-02-19T05:24:48.488Z,25.70
2019-02-19T05:27:17.035Z,29.00
2019-02-19T05:29:45.322Z,27.07
2019-02-19T05:32:14.017Z,27.97
2019-02-19T05:34:42.597Z,24.20
2019-02-19T05:37:11.244Z,26.53
2019-02-19T05:39:39.886Z,23.83
2019-02-19T05:42:08.576Z,25.60
2019-02-19T05:44:37.171Z,25.47
2019-02-19T05:47:05.109Z,27.57
2019-02-19T05:49:33.455Z,25.97
2019-02-19T05:52:01.982Z,21.43
2019-02-19T05:54:30.323Z,24.50
2019-02-19T05:56:58.596Z,21.77
2019-02-19T05:59:27.267Z,20.33
2019-02-19T06:01:55.642Z,23.73
2019-02-19T06:04:23.946Z,25.83
2019-02-19T06:06:52.531Z,22.87
2019-02-19T06:09:20.141Z,22.13
2019-02-19T06:11:48.360Z,21.40
2019-02-19T06:14:16.998Z,26.47
2019-02-19T06:16:45.611Z,29.40
2019-02-19T06:19:13.824Z,26.77
2019-02-19T06:21:41.623Z,24.43
2019-02-19T06:24:10.309Z,25.80
2019-02-19T06:26:38.990Z,22.43
2019-02-19T06:29:07.591Z,23.50
2019-02-19T06:31:35.872Z,22.97
2019-02-19T06:34:04.239Z,24.87
2019-02-19T06:36:32.508Z,25.53
2019-02-19T06:39:00.791Z,24.53
2019-02-19T06:41:29.376Z,25.97
2019-02-19T06:43:57.663Z,27.83
2019-02-19T06:46:26.058Z,24.40
2019-02-19T06:48:54.756Z,25.87
2019-02-19T06:51:22.927Z,22.43
2019-02-19T06:53:51.290Z,19.67
2019-02-19T06:56:19.791Z,28.60
2019-02-19T06:58:48.058Z,21.17
2019-02-19T07:04:18.991Z,21.67
2019-02-19T07:06:46.923Z,20.03
2019-02-19T07:09:15.166Z,20.23
2019-02-19T07:11:43.408Z,18.50
2019-02-19T07:14:11.657Z,22.00
2019-02-19T07:16:39.525Z,18.67
2019-02-19T07:19:08.183Z,20.10
2019-02-19T07:21:36.502Z,21.57
2019-02-19T07:24:04.829Z,76.67
2019-02-19T07:26:40.197Z,89.30
2019-02-19T07:29:08.749Z,73.63
2019-02-19T07:31:37.017Z,45.30
2019-02-19T07:34:05.346Z,36.27
2019-02-19T07:36:33.259Z,30.13
2019-02-19T07:39:01.998Z,41.50
2019-02-19T07:41:29.824Z,31.20
2019-02-19T07:43:58.290Z,54.80
2019-02-19T07:46:26.166Z,83.33
2019-02-19T07:48:54.763Z,51.37
2019-02-19T07:51:22.636Z,33.50
2019-02-19T07:53:51.368Z,26.07
2019-02-19T07:56:20.017Z,23.00
2019-02-19T07:58:47.983Z,26.77
2019-02-19T08:01:16.681Z,23.17
2019-02-19T08:03:45.366Z,21.07
2019-02-19T08:06:13.652Z,22.27
2019-02-19T08:08:41.531Z,22.30
2019-02-19T08:11:10.208Z,20.90
2019-02-19T08:13:38.557Z,23.13
2019-02-19T08:16:06.842Z,22.80
2019-02-19T08:18:35.058Z,22.73
2019-02-19T08:21:03.456Z,21.40
2019-02-19T08:23:31.828Z,20.63
2019-02-19T08:26:00.121Z,17.77
2019-02-19T08:28:28.493Z,16.30
2019-02-19T08:30:57.083Z,18.20
2019-02-19T08:33:25.327Z,20.90
2019-02-19T08:35:53.661Z,17.73
2019-02-19T08:38:21.883Z,15.80
2019-02-19T08:40:50.536Z,14.97
2019-02-19T08:43:19.367Z,14.90
2019-02-19T08:45:48.048Z,16.90
2019-02-19T08:48:16.220Z,23.57
2019-02-19T08:50:44.357Z,19.57
2019-02-19T08:53:13.053Z,20.83
2019-02-19T08:55:40.973Z,20.03
2019-02-19T08:58:09.683Z,18.37
2019-02-19T09:00:38.602Z,18.57
2019-02-19T09:03:06.823Z,21.07
2019-02-19T09:05:35.072Z,22.27
2019-02-19T09:08:03.459Z,18.63
2019-02-19T09:10:31.762Z,25.37
2019-02-19T09:13:00.122Z,24.77
2019-02-19T09:15:28.090Z,21.87
2019-02-19T09:17:55.712Z,20.73
2019-02-19T09:20:24.435Z,20.93
2019-02-19T09:22:52.014Z,19.47
2019-02-19T09:25:20.564Z,18.33
2019-02-19T09:27:48.808Z,18.93
2019-02-19T09:30:17.382Z,15.07
2019-02-19T09:32:44.854Z,14.87
2019-02-19T09:35:13.495Z,21.17
2019-02-19T09:37:41.844Z,12.93
2019-02-19T09:40:09.892Z,16.07
2019-02-19T09:42:38.617Z,16.20
2019-02-19T09:45:07.696Z,13.57
2019-02-19T09:47:36.220Z,15.47
2019-02-19T09:50:04.052Z,16.27
2019-02-19T09:52:31.928Z,17.20
2019-02-19T09:55:00.583Z,14.63
2019-02-19T09:57:28.807Z,11.60
2019-02-19T09:59:56.788Z,13.90
2019-02-19T10:02:25.563Z,14.07
2019-02-19T10:04:54.215Z,12.33
2019-02-19T10:07:22.474Z,11.30
2019-02-19T10:09:50.995Z,15.37
2019-02-19T10:12:19.227Z,13.63
2019-02-19T10:14:47.501Z,14.13
2019-02-19T10:17:15.528Z,11.87
2019-02-19T10:19:55.525Z,13.30
2019-02-19T10:22:23.704Z,13.03
2019-02-19T10:24:52.486Z,11.50
2019-02-19T10:27:28.651Z,12.90
2019-02-19T10:29:56.243Z,14.17
2019-02-19T10:32:24.596Z,14.77
2019-02-19T10:34:52.881Z,11.67
2019-02-19T10:37:21.677Z,23.20
2019-02-19T10:39:49.839Z,16.37
2019-02-19T10:42:19.034Z,13.20
2019-02-19T10:44:47.676Z,8.97
2019-02-19T10:47:15.625Z,11.97
2019-02-19T10:49:43.805Z,11.63
2019-02-19T10:52:12.156Z,11.37
2019-02-19T10:54:40.488Z,14.73
2019-02-19T10:57:09.192Z,9.53
2019-02-19T10:59:37.463Z,8.63
2019-02-19T11:02:05.723Z,12.77
2019-02-19T11:04:34.058Z,6.93
2019-02-19T11:07:02.609Z,10.20
2019-02-19T11:09:30.498Z,10.37
2019-02-19T11:11:58.445Z,12.03
2019-02-19T11:14:26.877Z,15.70
2019-02-19T11:16:55.192Z,10.70
2019-02-19T11:19:23.906Z,11.97
2019-02-19T11:21:52.703Z,13.17
2019-02-19T11:24:21.382Z,10.70
2019-02-19T11:26:49.782Z,9.67
2019-02-19T11:29:18.403Z,13.73
2019-02-19T11:31:47.014Z,8.43
2019-02-19T11:34:15.685Z,13.30
2019-02-19T11:36:43.656Z,9.33
2019-02-19T11:39:52.336Z,10.07
2019-02-19T11:42:20.698Z,13.50
2019-02-19T11:44:49.210Z,15.87
2019-02-19T11:47:26.303Z,9.93
2019-02-19T11:49:54.363Z,10.90
2019-02-19T11:52:22.271Z,13.30
2019-02-19T11:54:50.613Z,10.87
2019-02-19T11:57:18.477Z,11.90
2019-02-19T11:59:46.706Z,9.87
2019-02-19T12:02:16.167Z,10.90
2019-02-19T12:04:44.680Z,11.57
2019-02-19T12:07:13.386Z,11.23
2019-02-19T12:09:40.913Z,9.77
2019-02-19T12:12:09.526Z,13.00
2019-02-19T12:14:37.883Z,12.37
2019-02-19T12:17:06.073Z,11.63
2019-02-19T12:19:34.248Z,11.87
2019-02-19T12:22:02.838Z,11.63
2019-02-19T12:24:31.438Z,13.03
2019-02-19T12:27:00.314Z,14.50
2019-02-19T12:29:28.278Z,12.40
2019-02-19T12:31:56.639Z,13.00
2019-02-19T12:34:25.214Z,14.23
2019-02-19T12:40:00.823Z,11.43
2019-02-19T12:42:29.417Z,19.87
2019-02-19T12:44:57.777Z,12.87
2019-02-19T12:47:26.323Z,16.40
2019-02-19T12:49:54.249Z,11.20
2019-02-19T12:55:03.885Z,12.83
2019-02-19T12:57:32.426Z,15.33
2019-02-19T13:00:00.689Z,16.03
2019-02-19T13:02:28.983Z,14.40
2019-02-19T13:04:57.068Z,14.60
2019-02-19T13:07:25.023Z,17.83
2019-02-19T13:09:53.302Z,14.33
2019-02-19T13:12:21.609Z,13.40
2019-02-19T13:14:49.463Z,16.17
2019-02-19T13:17:17.677Z,16.77
2019-02-19T13:19:46.337Z,18.40
2019-02-19T13:22:13.912Z,12.03
2019-02-19T13:24:43.087Z,12.20
2019-02-19T13:27:18.134Z,12.43
2019-02-19T13:29:46.417Z,14.30
2019-02-19T13:32:14.699Z,14.23
2019-02-19T13:34:43.004Z,13.17
2019-02-19T13:37:11.182Z,17.80
2019-02-19T13:39:39.863Z,13.27
2019-02-19T13:42:07.844Z,11.50
2019-02-19T13:44:36.293Z,12.47
2019-02-19T13:47:04.608Z,11.97
2019-02-19T13:49:32.876Z,13.00
2019-02-19T13:55:23.091Z,13.30
2019-02-19T13:57:51.408Z,12.77
2019-02-19T14:00:21.271Z,18.27
2019-02-19T14:02:49.864Z,17.07
2019-02-19T14:05:18.101Z,15.03
2019-02-19T14:07:46.081Z,23.17
2019-02-19T14:10:14.303Z,15.60
2019-02-19T14:12:42.096Z,18.13
2019-02-19T14:15:29.575Z,20.27
2019-02-19T14:21:10.275Z,15.40
2019-02-19T14:23:57.992Z,19.40
2019-02-19T14:26:45.083Z,16.23
2019-02-19T14:29:32.069Z,19.37
2019-02-19T14:32:19.397Z,20.67
2019-02-19T14:35:07.355Z,15.60
2019-02-19T14:37:54.741Z,22.20
2019-02-19T14:40:54.288Z,18.13
2019-02-19T14:43:41.777Z,14.57
2019-02-19T14:46:29.224Z,15.93
2019-02-19T14:49:16.971Z,14.67
2019-02-19T14:52:04.886Z,15.90
2019-02-19T14:54:52.265Z,15.83
2019-02-19T14:57:40.022Z,15.37
2019-02-19T15:00:27.668Z,15.07
2019-02-19T15:03:15.559Z,15.80
2019-02-19T15:05:53.668Z,16.80
2019-02-19T15:08:40.624Z,18.07
2019-02-19T15:11:28.059Z,17.97
2019-02-19T15:14:15.414Z,15.70
2019-02-19T15:17:02.828Z,19.73
2019-02-19T15:19:50.626Z,18.90
2019-02-19T15:22:37.727Z,16.00
2019-02-19T15:25:25.339Z,16.53
2019-02-19T15:28:10.105Z,22.13
2019-02-19T15:30:57.672Z,26.43
2019-02-19T15:33:36.032Z,24.70
2019-02-19T15:36:23.501Z,24.27
2019-02-19T15:39:11.304Z,20.73
2019-02-19T15:41:58.750Z,23.27
2019-02-19T15:44:35.768Z,23.43
2019-02-19T15:47:23.540Z,17.57
2019-02-19T15:50:11.314Z,16.27
2019-02-19T15:52:58.686Z,20.33
2019-02-19T15:55:46.405Z,20.00
2019-02-19T15:58:34.923Z,25.40
2019-02-19T16:01:22.779Z,32.33
2019-02-19T16:04:09.555Z,31.83
2019-02-19T16:06:56.760Z,36.17
2019-02-19T16:09:32.327Z,32.63
2019-02-19T16:12:19.401Z,25.70
2019-02-19T16:15:07.160Z,19.90
2019-02-19T16:17:54.603Z,17.97
2019-02-19T16:20:41.960Z,23.30
2019-02-19T16:23:28.996Z,19.63
2019-02-19T16:26:18.677Z,19.80
2019-02-19T16:29:13.092Z,21.50
2019-02-19T16:32:00.516Z,21.53
2019-02-19T16:34:47.909Z,29.37
2019-02-19T16:37:35.676Z,24.33
2019-02-19T16:40:42.437Z,30.20
2019-02-19T16:43:29.519Z,25.73
2019-02-19T16:46:17.060Z,19.27
2019-02-19T16:49:04.962Z,21.30
2019-02-19T16:51:52.640Z,23.07
2019-02-19T16:54:40.134Z,22.13
2019-02-19T16:57:27.207Z,25.70
2019-02-19T17:00:06.157Z,26.73
2019-02-19T17:02:53.171Z,21.50
2019-02-19T17:05:42.559Z,25.53
2019-02-19T17:08:37.484Z,26.27
2019-02-19T17:11:25.060Z,24.57
2019-02-19T17:14:12.419Z,23.70
2019-02-19T17:16:48.305Z,23.33
2019-02-19T17:19:36.037Z,21.67
2019-02-19T17:22:23.870Z,33.93
2019-02-19T17:25:11.769Z,27.03
2019-02-19T17:27:58.926Z,27.00
2019-02-19T17:33:48.126Z,24.17
2019-02-19T17:36:21.794Z,32.73
2019-02-19T17:38:55.492Z,32.07
2019-02-19T17:41:29.681Z,26.03
2019-02-19T17:44:06.620Z,23.47
2019-02-19T17:46:54.390Z,22.23
2019-02-19T17:49:42.157Z,23.27
2019-02-19T17:52:29.535Z,25.63
2019-02-19T17:55:16.542Z,22.53
2019-02-19T17:58:03.913Z,26.23
2019-02-19T18:01:10.648Z,22.40
2019-02-19T18:03:45.068Z,38.42
2019-02-19T18:06:32.401Z,44.10
2019-02-19T18:09:19.992Z,41.37
2019-02-19T18:11:53.900Z,25.53
2019-02-19T18:14:41.333Z,37.20
2019-02-19T18:17:29.099Z,40.57
2019-02-19T18:20:09.201Z,26.67
2019-02-19T18:22:37.886Z,24.00
2019-02-19T18:25:05.609Z,28.60
2019-02-19T18:27:33.222Z,31.43
2019-02-19T18:30:01.830Z,32.87
2019-02-19T18:32:30.243Z,28.53
2019-02-19T18:34:58.932Z,59.47
2019-02-19T18:37:27.578Z,36.87
2019-02-19T18:39:55.980Z,47.90
2019-02-19T18:42:24.228Z,77.10
2019-02-19T18:44:52.996Z,29.27
2019-02-19T18:47:21.320Z,28.20
2019-02-19T18:49:49.926Z,41.47
2019-02-19T18:52:18.201Z,53.27
2019-02-19T18:54:46.727Z,48.33
2019-02-19T18:57:15.221Z,38.37
2019-02-19T18:59:43.161Z,47.53
2019-02-19T19:02:11.752Z,43.37
2019-02-19T19:04:40.226Z,48.27
2019-02-19T19:07:08.800Z,56.17
2019-02-19T19:09:37.310Z,35.00
2019-02-19T19:12:05.488Z,44.10
2019-02-19T19:14:33.871Z,33.83
2019-02-19T19:17:02.183Z,48.57
2019-02-19T19:19:30.233Z,41.07
2019-02-19T19:21:58.553Z,35.60
2019-02-19T19:24:27.009Z,31.33
2019-02-19T19:26:55.324Z,27.73
2019-02-19T19:29:23.915Z,29.63
2019-02-19T19:31:52.470Z,29.73
2019-02-19T19:34:20.330Z,34.97
2019-02-19T19:36:48.726Z,37.07
2019-02-19T19:39:16.980Z,37.33
2019-02-19T19:41:45.756Z,35.97
2019-02-19T19:44:14.050Z,29.20
2019-02-19T19:46:42.375Z,34.33
2019-02-19T19:49:10.963Z,29.13
2019-02-19T19:51:39.447Z,33.63
2019-02-19T19:54:08.197Z,37.37
2019-02-19T19:56:36.761Z,32.30
2019-02-19T19:59:05.531Z,34.33
2019-02-19T20:01:33.120Z,31.87
2019-02-19T20:04:01.973Z,31.37
2019-02-19T20:06:30.234Z,32.30
2019-02-19T20:08:58.461Z,36.20
2019-02-19T20:11:26.776Z,35.73
2019-02-19T20:13:54.706Z,39.00
2019-02-19T20:16:23.578Z,38.77
2019-02-19T20:18:52.138Z,33.43
2019-02-19T20:21:26.523Z,33.17
2019-02-19T20:23:56.616Z,32.60
2019-02-19T20:26:25.460Z,31.90
2019-02-19T20:28:54.097Z,35.43
2019-02-19T20:31:22.488Z,40.20
2019-02-19T20:33:50.783Z,46.77
2019-02-19T20:36:19.114Z,62.03
2019-02-19T20:38:47.006Z,29.77
2019-02-19T20:41:15.705Z,40.53
2019-02-19T20:43:44.043Z,52.40
2019-02-19T20:46:12.708Z,45.43
2019-02-19T20:48:40.537Z,39.13
2019-02-19T20:51:09.165Z,40.60
2019-02-19T20:53:37.850Z,47.37
2019-02-19T20:56:05.659Z,38.97
2019-02-19T20:58:34.234Z,43.57
2019-02-19T21:01:13.966Z,40.77
2019-02-19T21:03:44.092Z,35.33
2019-02-19T21:06:12.482Z,30.90
2019-02-19T21:08:40.781Z,28.10
2019-02-19T21:11:15.772Z,34.93
2019-02-19T21:13:44.043Z,32.27
2019-02-19T21:16:12.395Z,34.00
2019-02-19T21:18:40.371Z,35.63
2019-02-19T21:21:09.035Z,35.23
2019-02-19T21:23:37.331Z,30.13
2019-02-19T21:26:06.075Z,31.87
2019-02-19T21:28:34.725Z,34.60
2019-02-19T21:31:02.989Z,36.97
2019-02-19T21:33:30.858Z,36.10
2019-02-19T21:35:58.850Z,35.33
2019-02-19T21:38:27.184Z,44.50
2019-02-19T21:40:55.094Z,38.43
2019-02-19T21:43:22.931Z,35.93
2019-02-19T21:45:51.224Z,33.73
2019-02-19T21:48:19.500Z,32.97
2019-02-19T21:50:48.073Z,37.77
2019-02-19T21:53:16.144Z,37.13
2019-02-19T21:55:44.420Z,35.03
2019-02-19T21:58:12.703Z,35.17
2019-02-19T22:00:41.301Z,45.93
2019-02-19T22:03:09.575Z,41.13
2019-02-19T22:05:37.756Z,35.00
2019-02-19T22:08:06.519Z,33.13
2019-02-19T22:10:34.735Z,32.30
2019-02-19T22:13:03.236Z,35.07
2019-02-19T22:15:31.942Z,37.43
2019-02-19T22:17:59.895Z,39.57
2019-02-19T22:20:47.365Z,45.77
2019-02-19T22:23:16.037Z,42.17
2019-02-19T22:25:44.290Z,41.40
2019-02-19T22:28:12.554Z,43.30
2019-02-19T22:30:41.147Z,43.43
2019-02-19T22:33:09.365Z,41.07
2019-02-19T22:35:37.916Z,49.57
2019-02-19T22:38:25.223Z,42.07
2019-02-19T22:41:12.465Z,40.53
2019-02-19T22:43:41.095Z,50.37
2019-02-19T22:46:09.329Z,49.87
2019-02-19T22:48:37.680Z,52.17
2019-02-19T22:51:05.985Z,57.03
2019-02-19T22:53:53.704Z,33.33
2019-02-19T22:56:25.464Z,35.17
2019-02-19T22:58:53.739Z,37.30
2019-02-19T23:01:41.582Z,35.63
2019-02-19T23:04:09.136Z,40.17
2019-02-19T23:06:37.455Z,36.40
2019-02-19T23:09:06.216Z,39.50
2019-02-19T23:11:34.913Z,34.13
2019-02-19T23:14:03.186Z,38.03
2019-02-19T23:16:31.413Z,37.40
2019-02-19T23:19:00.003Z,37.17
2019-02-19T23:21:28.504Z,36.77
2019-02-19T23:23:56.781Z,40.55
2019-02-19T23:26:25.021Z,40.80
2019-02-19T23:28:52.991Z,39.47
2019-02-19T23:31:20.772Z,40.63
2019-02-19T23:33:49.286Z,51.90
2019-02-19T23:36:36.944Z,49.93
2019-02-19T23:39:05.996Z,37.70
2019-02-19T23:41:34.305Z,43.77
2019-02-19T23:44:02.851Z,39.57
2019-02-19T23:46:31.395Z,38.67
2019-02-19T23:48:59.689Z,39.33
2019-02-19T23:51:27.579Z,38.93
2019-02-19T23:53:55.862Z,41.70
2019-02-19T23:56:24.050Z,49.77
2019-02-19T23:58:52.560Z,49.77
